createdAt,value
2018-05-01T00:00:13.226Z,9.77
2018-05-01T00:02:42.197Z,4.30
2018-05-01T00:05:11.267Z,4.80
2018-05-01T00:07:39.483Z,4.10
2018-05-01T00:10:08.051Z,5.53
2018-05-01T00:12:36.260Z,2.47
2018-05-01T00:15:04.513Z,2.30
2018-05-01T00:17:32.744Z,2.73
2018-05-01T00:20:00.950Z,4.47
2018-05-01T00:22:29.950Z,4.50
2018-05-01T00:24:58.234Z,3.20
2018-05-01T00:27:26.483Z,2.83
2018-05-01T00:29:54.784Z,2.00
2018-05-01T00:32:23.004Z,1.80
2018-05-01T00:34:51.208Z,1.90
2018-05-01T00:37:20.224Z,2.20
2018-05-01T00:39:49.216Z,2.03
2018-05-01T00:42:17.439Z,2.30
2018-05-01T00:44:45.663Z,2.80
2018-05-01T00:47:14.675Z,3.00
2018-05-01T00:49:42.940Z,4.47
2018-05-01T00:55:16.655Z,4.83
2018-05-01T00:57:45.655Z,3.57
2018-05-01T01:00:13.976Z,4.40
2018-05-01T01:02:42.313Z,2.00
2018-05-01T01:05:10.508Z,2.40
2018-05-01T01:07:38.746Z,1.60
2018-05-01T01:10:08.011Z,2.10
2018-05-01T01:12:36.257Z,3.03
2018-05-01T01:15:04.499Z,1.77
2018-05-01T01:17:33.500Z,1.30
2018-05-01T01:20:01.934Z,1.27
2018-05-01T01:22:30.144Z,1.80
2018-05-01T01:24:59.147Z,1.70
2018-05-01T01:27:27.421Z,1.67
2018-05-01T01:29:55.701Z,1.40
2018-05-01T01:32:23.900Z,1.63
2018-05-01T01:34:52.124Z,2.60
2018-05-01T01:37:19.846Z,2.03
2018-05-01T01:39:47.597Z,2.23
2018-05-01T01:42:15.319Z,1.97
2018-05-01T01:44:43.820Z,1.60
2018-05-01T01:47:11.585Z,1.50
2018-05-01T01:49:39.345Z,0.90
2018-05-01T01:52:07.827Z,2.07
2018-05-01T01:54:36.700Z,1.40
2018-05-01T01:57:05.183Z,1.30
2018-05-01T01:59:33.679Z,1.60
2018-05-01T02:02:01.395Z,1.57
2018-05-01T02:04:29.125Z,1.47
2018-05-01T02:06:56.838Z,1.70
2018-05-01T02:09:24.561Z,1.30
2018-05-01T02:11:53.045Z,1.20
2018-05-01T02:14:20.772Z,1.40
2018-05-01T02:16:48.535Z,1.40
2018-05-01T02:19:16.300Z,1.10
2018-05-01T02:21:44.770Z,2.07
2018-05-01T02:24:13.256Z,2.10
2018-05-01T02:26:41.736Z,1.87
2018-05-01T02:29:10.300Z,1.20
2018-05-01T02:31:38.011Z,1.50
2018-05-01T02:34:05.726Z,1.47
2018-05-01T02:36:33.512Z,1.40
2018-05-01T02:39:02.153Z,1.90
2018-05-01T02:41:29.860Z,2.20
2018-05-01T02:43:58.441Z,1.50
2018-05-01T02:46:27.023Z,1.40
2018-05-01T02:48:55.609Z,1.53
2018-05-01T02:51:23.313Z,1.50
2018-05-01T02:53:51.045Z,1.20
2018-05-01T02:56:18.774Z,1.10
2018-05-01T02:58:46.481Z,1.30
2018-05-01T03:01:14.221Z,1.97
2018-05-01T03:03:42.698Z,1.50
2018-05-01T03:06:11.193Z,1.00
2018-05-01T03:08:38.920Z,1.30
2018-05-01T03:11:06.721Z,1.27
2018-05-01T03:13:34.468Z,1.30
2018-05-01T03:16:03.010Z,1.30
2018-05-01T03:18:30.736Z,1.30
2018-05-01T03:20:58.464Z,1.13
2018-05-01T03:23:26.952Z,1.10
2018-05-01T03:25:55.456Z,1.80
2018-05-01T03:28:23.184Z,1.90
2018-05-01T03:30:50.896Z,1.60
2018-05-01T03:33:18.610Z,1.50
2018-05-01T03:35:46.413Z,1.43
2018-05-01T03:38:14.144Z,1.20
2018-05-01T03:40:42.765Z,1.50
2018-05-01T03:43:10.775Z,1.07
2018-05-01T03:45:38.589Z,1.13
2018-05-01T03:48:06.305Z,1.50
2018-05-01T03:50:34.029Z,1.40
2018-05-01T03:53:01.787Z,1.37
2018-05-01T03:55:29.507Z,1.47
2018-05-01T03:57:57.260Z,1.57
2018-05-01T04:00:25.056Z,1.43
2018-05-01T04:02:53.551Z,1.77
2018-05-01T04:05:22.042Z,1.30
2018-05-01T04:07:49.780Z,1.90
2018-05-01T04:10:18.273Z,1.60
2018-05-01T04:12:45.982Z,1.70
2018-05-01T04:15:14.101Z,1.50
2018-05-01T04:17:42.575Z,1.80
2018-05-01T04:20:11.225Z,1.80
2018-05-01T04:22:38.968Z,1.50
2018-05-01T04:25:06.674Z,1.67
2018-05-01T04:27:35.176Z,1.33
2018-05-01T04:30:03.201Z,1.50
2018-05-01T04:32:31.010Z,1.50
2018-05-01T04:34:58.781Z,1.73
2018-05-01T04:37:26.516Z,1.13
2018-05-01T04:39:54.292Z,1.47
2018-05-01T04:42:22.882Z,1.80
2018-05-01T04:44:51.361Z,1.57
2018-05-01T04:47:19.852Z,1.70
2018-05-01T04:49:47.610Z,1.70
2018-05-01T04:52:15.365Z,1.43
2018-05-01T04:54:43.844Z,1.77
2018-05-01T04:57:11.629Z,1.97
2018-05-01T04:59:39.351Z,1.70
2018-05-01T05:02:07.147Z,1.40
2018-05-01T05:04:34.908Z,1.80
2018-05-01T05:07:02.634Z,1.70
2018-05-01T05:09:30.372Z,1.40
2018-05-01T05:11:58.077Z,1.70
2018-05-01T05:14:26.582Z,1.70
2018-05-01T05:16:55.085Z,1.57
2018-05-01T05:19:22.818Z,1.73
2018-05-01T05:21:51.424Z,1.90
2018-05-01T05:24:19.136Z,1.60
2018-05-01T05:26:46.861Z,1.70
2018-05-01T05:29:14.578Z,1.70
2018-05-01T05:31:43.171Z,1.87
2018-05-01T05:34:11.653Z,1.90
2018-05-01T05:36:40.142Z,1.83
2018-05-01T05:39:07.859Z,1.67
2018-05-01T05:41:35.590Z,1.90
2018-05-01T05:44:03.296Z,2.00
2018-05-01T05:46:31.039Z,1.90
2018-05-01T05:48:58.857Z,1.93
2018-05-01T05:51:27.326Z,1.60
2018-05-01T05:53:55.823Z,1.80
2018-05-01T05:56:23.544Z,1.87
2018-05-01T05:58:51.333Z,2.10
2018-05-01T06:01:19.838Z,2.00
2018-05-01T06:03:47.589Z,1.83
2018-05-01T06:06:15.353Z,1.70
2018-05-01T06:08:43.843Z,1.67
2018-05-01T06:11:11.558Z,2.07
2018-05-01T06:13:39.346Z,2.00
2018-05-01T06:16:07.036Z,1.50
2018-05-01T06:18:34.788Z,1.90
2018-05-01T06:21:02.605Z,1.70
2018-05-01T06:23:30.328Z,1.53
2018-05-01T06:25:58.050Z,1.60
2018-05-01T06:28:25.841Z,1.83
2018-05-01T06:30:54.320Z,1.73
2018-05-01T06:33:22.808Z,1.83
2018-05-01T06:35:50.513Z,1.73
2018-05-01T06:38:18.324Z,1.23
2018-05-01T06:40:46.808Z,1.80
2018-05-01T06:43:15.301Z,1.50
2018-05-01T06:45:43.065Z,1.70
2018-05-01T06:48:10.790Z,1.63
2018-05-01T06:50:38.525Z,1.60
2018-05-01T06:53:06.272Z,1.50
2018-05-01T06:55:34.165Z,1.70
2018-05-01T06:58:01.975Z,1.60
2018-05-01T07:00:30.454Z,1.60
2018-05-01T07:02:58.960Z,1.80
2018-05-01T07:05:26.697Z,1.67
2018-05-01T07:07:55.205Z,1.67
2018-05-01T07:10:23.060Z,1.70
2018-05-01T07:12:50.678Z,1.60
2018-05-01T07:15:18.404Z,1.70
2018-05-01T07:17:46.129Z,1.70
2018-05-01T07:20:14.610Z,2.00
2018-05-01T07:22:43.090Z,1.50
2018-05-01T07:25:11.580Z,1.67
2018-05-01T07:27:39.298Z,1.60
2018-05-01T07:30:08.289Z,1.70
2018-05-01T07:32:35.997Z,1.60
2018-05-01T07:35:04.492Z,1.90
2018-05-01T07:37:32.205Z,1.70
2018-05-01T07:40:00.004Z,1.43
2018-05-01T07:42:28.469Z,2.10
2018-05-01T07:44:57.095Z,1.97
2018-05-01T07:47:24.792Z,1.50
2018-05-01T07:49:52.529Z,1.53
2018-05-01T07:52:20.827Z,1.60
2018-05-01T07:54:48.529Z,1.70
2018-05-01T07:57:17.009Z,1.70
2018-05-01T07:59:45.501Z,2.30
2018-05-01T08:02:13.212Z,1.90
2018-05-01T08:04:40.937Z,2.00
2018-05-01T08:07:08.680Z,2.00
2018-05-01T08:09:36.431Z,1.80
2018-05-01T08:12:04.158Z,2.00
2018-05-01T08:14:31.893Z,1.73
2018-05-01T08:17:00.260Z,1.90
2018-05-01T08:19:27.980Z,1.80
2018-05-01T08:21:56.465Z,1.60
2018-05-01T08:24:25.725Z,2.10
2018-05-01T08:26:53.452Z,2.00
2018-05-01T08:29:21.187Z,3.10
2018-05-01T08:31:48.898Z,3.30
2018-05-01T08:34:16.641Z,4.80
2018-05-01T08:36:45.116Z,3.67
2018-05-01T08:39:13.620Z,4.67
2018-05-01T08:41:41.377Z,3.03
2018-05-01T08:44:09.149Z,3.53
2018-05-01T08:46:36.884Z,4.40
2018-05-01T08:49:05.380Z,5.03
2018-05-01T08:51:33.877Z,4.93
2018-05-01T08:54:01.611Z,5.80
2018-05-01T08:56:30.121Z,4.73
2018-05-01T08:58:57.839Z,4.43
2018-05-01T09:01:25.640Z,10.03
2018-05-01T09:03:53.368Z,5.50
2018-05-01T09:06:21.088Z,6.10
2018-05-01T09:08:48.814Z,3.57
2018-05-01T09:11:17.409Z,7.47
2018-05-01T09:13:45.173Z,5.17
2018-05-01T09:16:13.492Z,4.00
2018-05-01T09:18:41.332Z,4.47
2018-05-01T09:21:09.184Z,4.07
2018-05-01T09:23:36.903Z,4.47
2018-05-01T09:26:04.635Z,3.87
2018-05-01T09:28:32.344Z,3.40
2018-05-01T09:31:00.848Z,4.70
2018-05-01T09:33:28.561Z,7.90
2018-05-01T09:35:57.812Z,5.68
2018-05-01T09:38:25.565Z,3.70
2018-05-01T09:40:54.056Z,3.27
2018-05-01T09:43:21.802Z,3.93
2018-05-01T09:45:50.297Z,3.93
2018-05-01T09:48:18.060Z,3.27
2018-05-01T09:50:45.821Z,3.53
2018-05-01T09:53:14.889Z,5.03
2018-05-01T09:55:43.225Z,4.07
2018-05-01T09:58:11.476Z,4.00
2018-05-01T10:00:39.700Z,5.67
2018-05-01T10:03:08.173Z,4.50
2018-05-01T10:05:36.413Z,4.13
2018-05-01T10:08:04.663Z,3.83
2018-05-01T10:10:33.646Z,3.73
2018-05-01T10:13:02.680Z,2.97
2018-05-01T10:15:30.878Z,4.70
2018-05-01T10:17:59.092Z,3.53
2018-05-01T10:20:28.101Z,3.30
2018-05-01T10:22:57.254Z,2.93
2018-05-01T10:25:25.455Z,2.70
2018-05-01T10:27:54.433Z,2.10
2018-05-01T10:30:22.656Z,2.90
2018-05-01T10:32:50.876Z,2.17
2018-05-01T10:35:19.193Z,5.83
2018-05-01T10:37:47.469Z,2.60
2018-05-01T10:40:15.684Z,7.63
2018-05-01T10:42:43.914Z,3.40
2018-05-01T10:45:12.118Z,3.50
2018-05-01T10:47:40.368Z,2.20
2018-05-01T10:50:08.849Z,1.90
2018-05-01T10:52:37.836Z,2.87
2018-05-01T10:55:06.140Z,3.13
2018-05-01T10:57:34.360Z,2.13
2018-05-01T11:00:02.938Z,2.10
2018-05-01T11:02:31.260Z,2.30
2018-05-01T11:04:59.464Z,2.30
2018-05-01T11:07:27.698Z,2.07
2018-05-01T11:09:55.972Z,2.27
2018-05-01T11:12:24.194Z,2.10
2018-05-01T11:14:52.498Z,19.63
2018-05-01T11:17:20.747Z,3.67
2018-05-01T11:19:49.685Z,1.90
2018-05-01T11:22:18.705Z,2.83
2018-05-01T11:24:46.905Z,2.53
2018-05-01T11:27:15.136Z,2.50
2018-05-01T11:29:43.347Z,1.77
2018-05-01T11:32:11.601Z,2.00
2018-05-01T11:34:39.809Z,2.23
2018-05-01T11:37:08.043Z,2.17
2018-05-01T11:39:36.258Z,1.90
2018-05-01T11:42:04.472Z,1.80
2018-05-01T11:44:33.446Z,2.40
2018-05-01T11:47:01.657Z,2.20
2018-05-01T11:49:29.915Z,2.40
2018-05-01T11:51:58.885Z,2.80
2018-05-01T11:54:27.189Z,3.10
2018-05-01T11:56:56.194Z,2.00
2018-05-01T11:59:24.425Z,4.10
2018-05-01T12:01:52.679Z,9.97
2018-05-01T12:04:20.982Z,10.03
2018-05-01T12:06:49.223Z,36.67
2018-05-01T12:09:17.444Z,29.30
2018-05-01T12:11:46.465Z,12.43
2018-05-01T12:14:14.723Z,13.07
2018-05-01T12:16:42.977Z,11.93
2018-05-01T12:19:11.339Z,8.20
2018-05-01T12:21:39.553Z,6.93
2018-05-01T12:24:07.832Z,4.20
2018-05-01T12:26:36.048Z,3.80
2018-05-01T12:29:04.445Z,2.60
2018-05-01T12:31:33.422Z,3.97
2018-05-01T12:34:01.665Z,4.50
2018-05-01T12:36:29.919Z,2.93
2018-05-01T12:38:58.160Z,6.30
2018-05-01T12:41:26.486Z,24.33
2018-05-01T12:43:54.762Z,28.77
2018-05-01T12:46:23.036Z,10.43
2018-05-01T12:48:51.305Z,2.50
2018-05-01T12:51:20.303Z,3.60
2018-05-01T12:53:48.520Z,2.20
2018-05-01T12:56:16.732Z,3.03
2018-05-01T12:58:45.745Z,3.17
2018-05-01T13:01:14.013Z,3.17
2018-05-01T13:03:42.999Z,4.10
2018-05-01T13:06:11.960Z,3.30
2018-05-01T13:08:40.173Z,3.13
2018-05-01T13:11:09.295Z,2.47
2018-05-01T13:13:37.488Z,2.27
2018-05-01T13:16:05.725Z,2.23
2018-05-01T13:18:33.982Z,2.77
2018-05-01T13:21:02.169Z,2.63
2018-05-01T13:23:31.139Z,2.87
2018-05-01T13:26:00.136Z,2.33
2018-05-01T13:28:29.113Z,2.67
2018-05-01T13:30:58.096Z,3.00
2018-05-01T13:33:26.364Z,3.47
2018-05-01T13:35:54.693Z,4.07
2018-05-01T13:38:23.660Z,2.80
2018-05-01T13:40:51.889Z,2.50
2018-05-01T13:43:20.162Z,2.00
2018-05-01T13:45:48.408Z,2.33
2018-05-01T13:48:16.638Z,2.50
2018-05-01T13:50:44.860Z,2.60
2018-05-01T13:53:13.069Z,2.30
2018-05-01T13:55:41.318Z,2.67
2018-05-01T13:58:09.518Z,2.40
2018-05-01T14:00:37.772Z,2.53
2018-05-01T14:03:07.015Z,2.60
2018-05-01T14:05:35.265Z,3.03
2018-05-01T14:08:03.470Z,3.33
2018-05-01T14:10:31.694Z,3.10
2018-05-01T14:12:59.956Z,2.47
2018-05-01T14:15:29.056Z,2.77
2018-05-01T14:17:57.337Z,3.50
2018-05-01T14:20:25.590Z,3.63
2018-05-01T14:22:54.553Z,3.67
2018-05-01T14:25:22.939Z,2.77
2018-05-01T14:27:51.219Z,2.13
2018-05-01T14:30:19.550Z,2.40
2018-05-01T14:32:47.760Z,4.00
2018-05-01T14:35:15.997Z,2.93
2018-05-01T14:37:44.233Z,4.93
2018-05-01T14:40:12.678Z,3.23
2018-05-01T14:42:40.894Z,3.90
2018-05-01T14:45:09.889Z,5.67
2018-05-01T14:47:38.856Z,3.53
2018-05-01T14:50:07.429Z,3.43
2018-05-01T14:52:35.641Z,3.00
2018-05-01T14:55:04.649Z,4.03
2018-05-01T14:57:32.925Z,2.37
2018-05-01T15:00:01.198Z,2.97
2018-05-01T15:02:29.407Z,2.70
2018-05-01T15:04:57.608Z,4.40
2018-05-01T15:07:25.924Z,3.50
2018-05-01T15:09:54.121Z,4.83
2018-05-01T15:12:22.361Z,2.93
2018-05-01T15:14:51.344Z,3.90
2018-05-01T15:17:20.331Z,3.90
2018-05-01T15:19:49.308Z,3.00
2018-05-01T15:22:17.628Z,3.87
2018-05-01T15:24:45.842Z,3.03
2018-05-01T15:27:14.072Z,3.00
2018-05-01T15:29:42.289Z,2.70
2018-05-01T15:32:10.508Z,2.70
2018-05-01T15:34:39.480Z,5.97
2018-05-01T15:37:07.701Z,4.97
2018-05-01T15:39:35.900Z,3.10
2018-05-01T15:42:04.116Z,4.57
2018-05-01T15:44:33.089Z,12.00
2018-05-01T15:47:01.329Z,6.70
2018-05-01T15:49:29.587Z,3.50
2018-05-01T15:51:58.543Z,2.90
2018-05-01T15:54:26.749Z,2.20
2018-05-01T15:56:54.970Z,2.73
2018-05-01T15:59:23.175Z,2.03
2018-05-01T16:01:52.238Z,3.33
2018-05-01T16:04:20.440Z,3.30
2018-05-01T16:06:49.548Z,2.77
2018-05-01T16:09:17.729Z,2.53
2018-05-01T16:11:45.954Z,2.23
2018-05-01T16:14:14.242Z,3.07
2018-05-01T16:16:42.458Z,2.30
2018-05-01T16:19:10.659Z,2.80
2018-05-01T16:21:38.883Z,4.10
2018-05-01T16:24:07.081Z,2.90
2018-05-01T16:26:35.352Z,3.20
2018-05-01T16:31:38.141Z,4.90
2018-05-01T16:34:07.164Z,3.30
2018-05-01T16:36:35.366Z,6.77
2018-05-01T16:39:03.609Z,5.07
2018-05-01T16:41:31.850Z,8.50
2018-05-01T16:44:00.838Z,6.63
2018-05-01T16:46:29.825Z,4.83
2018-05-01T16:48:58.066Z,6.17
2018-05-01T16:51:26.279Z,10.93
2018-05-01T16:53:55.321Z,6.87
2018-05-01T16:56:23.571Z,4.70
2018-05-01T16:58:51.801Z,8.57
2018-05-01T17:01:20.053Z,12.80
2018-05-01T17:03:48.297Z,14.50
2018-05-01T17:06:16.512Z,11.57
2018-05-01T17:08:44.748Z,8.03
2018-05-01T17:11:12.970Z,5.70
2018-05-01T17:13:41.196Z,7.83
2018-05-01T17:16:09.438Z,5.23
2018-05-01T17:18:37.644Z,2.50
2018-05-01T17:21:05.862Z,2.70
2018-05-01T17:23:34.101Z,2.80
2018-05-01T17:26:02.321Z,3.20
2018-05-01T17:28:30.553Z,2.60
2018-05-01T17:30:58.781Z,3.03
2018-05-01T17:33:27.799Z,3.57
2018-05-01T17:35:56.101Z,2.40
2018-05-01T17:38:24.330Z,2.70
2018-05-01T17:40:52.687Z,3.60
2018-05-01T17:43:20.860Z,2.83
2018-05-01T17:45:49.105Z,2.80
2018-05-01T17:48:17.342Z,2.87
2018-05-01T17:50:45.549Z,2.30
2018-05-01T17:53:13.772Z,2.40
2018-05-01T17:55:41.988Z,2.77
2018-05-01T17:58:10.285Z,2.40
2018-05-01T18:00:38.520Z,2.60
2018-05-01T18:03:08.130Z,2.73
2018-05-01T18:05:37.157Z,2.57
2018-05-01T18:08:05.397Z,2.90
2018-05-01T18:10:34.370Z,2.60
2018-05-01T18:13:02.679Z,2.70
2018-05-01T18:15:31.661Z,2.90
2018-05-01T18:18:00.652Z,2.90
2018-05-01T18:20:28.944Z,3.50
2018-05-01T18:22:57.240Z,3.30
2018-05-01T18:25:25.504Z,4.57
2018-05-01T18:27:53.784Z,3.20
2018-05-01T18:30:22.024Z,3.00
2018-05-01T18:32:50.234Z,3.37
2018-05-01T18:35:18.869Z,3.43
2018-05-01T18:37:47.123Z,3.50
2018-05-01T18:40:15.317Z,3.73
2018-05-01T18:42:43.528Z,3.13
2018-05-01T18:45:12.509Z,3.03
2018-05-01T18:47:41.487Z,2.90
2018-05-01T18:50:10.060Z,2.77
2018-05-01T18:52:38.382Z,3.00
2018-05-01T18:55:06.599Z,3.00
2018-05-01T18:57:34.798Z,3.77
2018-05-01T19:00:03.263Z,4.80
2018-05-01T19:02:31.472Z,3.33
2018-05-01T19:04:59.761Z,4.00
2018-05-01T19:07:28.764Z,4.57
2018-05-01T19:09:57.027Z,4.20
2018-05-01T19:12:25.990Z,4.63
2018-05-01T19:14:54.212Z,4.10
2018-05-01T19:17:22.451Z,3.10
2018-05-01T19:19:51.537Z,3.10
2018-05-01T19:22:19.793Z,4.20
2018-05-01T19:24:48.034Z,4.77
2018-05-01T19:27:16.251Z,4.47
2018-05-01T19:29:44.482Z,5.10
2018-05-01T19:32:12.686Z,5.20
2018-05-01T19:34:40.991Z,6.30
2018-05-01T19:37:09.242Z,5.20
2018-05-01T19:39:37.620Z,5.17
2018-05-01T19:42:05.906Z,4.47
2018-05-01T19:44:34.289Z,5.00
2018-05-01T19:47:03.482Z,4.87
2018-05-01T19:49:32.007Z,4.07
2018-05-01T19:52:00.993Z,3.40
2018-05-01T19:54:30.004Z,4.13
2018-05-01T19:56:58.353Z,4.63
2018-05-01T19:59:27.349Z,4.40
2018-05-01T20:01:56.423Z,5.47
2018-05-01T20:04:24.735Z,3.30
2018-05-01T20:06:52.953Z,5.73
2018-05-01T20:09:21.192Z,4.33
2018-05-01T20:11:49.464Z,4.40
2018-05-01T20:14:17.755Z,5.20
2018-05-01T20:16:45.926Z,4.07
2018-05-01T20:19:14.122Z,4.60
2018-05-01T20:21:42.348Z,4.70
2018-05-01T20:24:10.561Z,4.50
2018-05-01T20:26:38.836Z,3.90
2018-05-01T20:29:07.048Z,3.43
2018-05-01T20:31:35.517Z,3.20
2018-05-01T20:34:03.737Z,4.10
2018-05-01T20:36:31.969Z,4.20
2018-05-01T20:39:00.181Z,4.87
2018-05-01T20:41:28.428Z,4.33
2018-05-01T20:43:56.648Z,4.13
2018-05-01T20:46:24.932Z,4.27
2018-05-01T20:48:53.171Z,6.60
2018-05-01T20:51:22.172Z,5.77
2018-05-01T20:53:50.677Z,5.50
2018-05-01T20:56:19.027Z,3.97
2018-05-01T20:58:48.270Z,4.10
2018-05-01T21:01:16.505Z,3.53
2018-05-01T21:03:44.679Z,6.10
2018-05-01T21:06:12.893Z,4.20
2018-05-01T21:08:41.117Z,6.33
2018-05-01T21:11:10.116Z,7.57
2018-05-01T21:13:39.252Z,3.90
2018-05-01T21:16:09.016Z,3.47
2018-05-01T21:18:40.370Z,3.90
2018-05-01T21:21:08.644Z,4.23
2018-05-01T21:23:40.347Z,4.90
2018-05-01T21:26:10.553Z,4.03
2018-05-01T21:28:39.915Z,4.53
2018-05-01T21:31:09.318Z,7.20
2018-05-01T21:33:38.242Z,5.80
2018-05-01T21:36:06.501Z,3.67
2018-05-01T21:38:36.894Z,3.90
2018-05-01T21:41:05.136Z,4.00
2018-05-01T21:43:33.886Z,4.30
2018-05-01T21:46:04.571Z,3.60
2018-05-01T21:48:36.832Z,5.10
2018-05-01T21:51:08.408Z,4.23
2018-05-01T21:53:42.306Z,4.03
2018-05-01T21:56:10.504Z,4.80
2018-05-01T21:58:39.631Z,5.30
2018-05-01T22:01:08.254Z,3.33
2018-05-01T22:03:36.532Z,4.90
2018-05-01T22:06:04.740Z,3.73
2018-05-01T22:08:33.717Z,3.37
2018-05-01T22:11:01.936Z,6.43
2018-05-01T22:13:30.168Z,4.53
2018-05-01T22:15:58.576Z,11.53
2018-05-01T22:18:26.840Z,4.30
2018-05-01T22:20:55.057Z,6.80
2018-05-01T22:23:23.352Z,6.43
2018-05-01T22:25:51.566Z,5.83
2018-05-01T22:28:19.796Z,5.53
2018-05-01T22:30:48.009Z,4.40
2018-05-01T22:33:17.010Z,4.87
2018-05-01T22:35:45.995Z,4.63
2018-05-01T22:38:15.092Z,6.03
2018-05-01T22:40:43.341Z,4.73
2018-05-01T22:43:11.815Z,4.93
2018-05-01T22:45:40.031Z,5.97
2018-05-01T22:48:09.021Z,4.70
2018-05-01T22:50:37.220Z,4.53
2018-05-01T22:53:05.445Z,5.20
2018-05-01T22:55:34.422Z,5.00
2018-05-01T22:58:02.652Z,4.77
2018-05-01T23:00:30.936Z,5.27
2018-05-01T23:02:59.190Z,8.67
2018-05-01T23:05:28.145Z,6.60
2018-05-01T23:07:56.440Z,6.57
2018-05-01T23:10:25.476Z,7.30
2018-05-01T23:12:53.717Z,6.93
2018-05-01T23:15:22.685Z,7.60
2018-05-01T23:17:50.909Z,6.10
2018-05-01T23:20:19.124Z,8.73
2018-05-01T23:22:47.440Z,8.20
2018-05-01T23:25:15.666Z,8.00
2018-05-01T23:27:43.902Z,7.20
2018-05-01T23:30:12.383Z,6.67
2018-05-01T23:32:40.600Z,6.07
2018-05-01T23:35:08.828Z,8.43
2018-05-01T23:37:37.036Z,5.60
2018-05-01T23:40:05.519Z,4.83
2018-05-01T23:42:33.804Z,6.60
2018-05-01T23:45:02.730Z,8.03
2018-05-01T23:47:31.733Z,5.47
2018-05-01T23:49:59.966Z,5.90
2018-05-01T23:52:28.186Z,5.07
2018-05-01T23:54:56.413Z,4.60
2018-05-01T23:57:24.620Z,5.03
2018-05-01T23:59:53.626Z,5.83
